createdAt,value
2022-09-25T00:01:30.199Z,63.00
2022-09-25T00:03:58.717Z,60.88
2022-09-25T00:06:28.443Z,64.80
2022-09-25T00:08:57.904Z,68.40
2022-09-25T00:11:32.896Z,79.82
2022-09-25T00:14:02.457Z,74.07
2022-09-25T00:16:32.948Z,73.82
2022-09-25T00:19:20.295Z,72.95
2022-09-25T00:21:53.156Z,69.95
2022-09-25T00:24:21.378Z,72.43
2022-09-25T00:26:50.082Z,69.95
2022-09-25T00:29:20.843Z,82.90
2022-09-25T00:31:49.562Z,81.57
2022-09-25T00:34:17.975Z,76.55
2022-09-25T00:36:46.300Z,70.82
2022-09-25T00:39:14.331Z,66.13
2022-09-25T00:41:42.953Z,77.15
2022-09-25T00:44:48.971Z,76.60
2022-09-25T00:47:21.794Z,71.82
2022-09-25T00:49:50.790Z,73.80
2022-09-25T00:52:19.868Z,76.90
2022-09-25T00:55:00.389Z,74.65
2022-09-25T00:57:32.549Z,82.40
2022-09-25T01:00:07.645Z,80.45
2022-09-25T01:02:40.177Z,87.45
2022-09-25T01:05:15.970Z,83.27
2022-09-25T01:07:46.610Z,75.63
2022-09-25T01:10:15.961Z,74.70
2022-09-25T01:12:46.515Z,83.05
2022-09-25T01:15:19.285Z,81.68
2022-09-25T01:18:09.474Z,53.80
2022-09-25T01:21:02.801Z,85.78
2022-09-25T01:24:01.822Z,82.20
2022-09-25T01:27:07.157Z,73.20
2022-09-25T01:29:38.262Z,78.65
2022-09-25T01:32:33.828Z,84.43
2022-09-25T01:35:52.844Z,75.50
2022-09-25T01:38:38.767Z,70.70
2022-09-25T01:41:13.524Z,75.68
2022-09-25T01:43:48.249Z,72.13
2022-09-25T01:46:24.751Z,76.55
2022-09-25T01:48:56.329Z,78.10
2022-09-25T01:51:31.093Z,71.78
2022-09-25T01:54:03.522Z,71.43
2022-09-25T01:56:37.214Z,72.35
2022-09-25T01:59:17.787Z,75.93
2022-09-25T02:01:47.227Z,73.60
2022-09-25T02:04:32.655Z,73.10
2022-09-25T02:07:05.522Z,72.85
2022-09-25T02:12:15.703Z,73.65
2022-09-25T02:14:59.790Z,79.45
2022-09-25T02:17:57.714Z,75.07
2022-09-25T02:20:32.368Z,71.47
2022-09-25T02:23:23.755Z,68.32
2022-09-25T02:25:57.074Z,72.10
2022-09-25T02:28:25.194Z,69.05
2022-09-25T02:30:56.119Z,65.35
2022-09-25T02:33:25.425Z,73.57
2022-09-25T02:35:54.087Z,69.05
2022-09-25T02:38:22.416Z,73.18
2022-09-25T02:41:18.031Z,75.38
2022-09-25T02:44:24.046Z,70.63
2022-09-25T02:47:14.286Z,71.90
2022-09-25T02:49:52.552Z,68.43
2022-09-25T02:52:53.870Z,66.68
2022-09-25T02:55:34.258Z,68.35
2022-09-25T02:58:17.969Z,71.30
2022-09-25T03:00:49.509Z,65.55
2022-09-25T03:03:19.892Z,63.50
2022-09-25T03:05:49.493Z,62.83
2022-09-25T03:08:36.830Z,67.45
2022-09-25T03:11:07.528Z,65.72
2022-09-25T03:13:36.385Z,63.90
2022-09-25T03:16:07.749Z,63.67
2022-09-25T03:18:36.547Z,61.95
2022-09-25T03:21:06.036Z,68.15
2022-09-25T03:23:34.847Z,68.93
2022-09-25T03:26:04.639Z,62.65
2022-09-25T03:28:33.004Z,67.75
2022-09-25T03:31:06.914Z,69.78
2022-09-25T03:33:40.484Z,65.43
2022-09-25T03:36:14.780Z,64.10
2022-09-25T03:38:43.651Z,65.45
2022-09-25T03:41:13.194Z,62.85
2022-09-25T03:43:43.744Z,63.00
2022-09-25T03:46:14.056Z,64.40
2022-09-25T03:48:42.932Z,71.07
2022-09-25T03:51:11.442Z,63.30
2022-09-25T03:53:40.260Z,66.60
2022-09-25T03:56:11.855Z,67.15
2022-09-25T03:58:41.405Z,74.57
2022-09-25T04:01:11.142Z,81.15
2022-09-25T04:03:40.108Z,76.15
2022-09-25T04:06:09.144Z,72.20
2022-09-25T04:08:37.704Z,69.85
2022-09-25T04:11:05.969Z,65.65
2022-09-25T04:13:42.030Z,68.65
2022-09-25T04:16:11.655Z,76.32
2022-09-25T04:18:42.460Z,72.75
2022-09-25T04:21:12.745Z,66.82
2022-09-25T04:23:41.599Z,76.05
2022-09-25T04:26:10.676Z,76.88
2022-09-25T04:28:39.154Z,67.88
2022-09-25T04:31:07.530Z,69.85
2022-09-25T04:33:47.736Z,70.95
2022-09-25T04:36:19.265Z,70.55
2022-09-25T04:38:48.486Z,69.78
2022-09-25T04:41:20.221Z,74.30
2022-09-25T04:43:48.682Z,73.93
2022-09-25T04:46:21.811Z,73.05
2022-09-25T04:48:50.961Z,67.93
2022-09-25T04:51:18.874Z,65.30
2022-09-25T04:53:47.034Z,58.70
2022-09-25T04:56:16.751Z,61.17
2022-09-25T04:58:46.653Z,61.50
2022-09-25T05:01:15.202Z,57.67
2022-09-25T05:03:43.710Z,58.92
2022-09-25T05:06:12.081Z,62.92
2022-09-25T05:08:39.765Z,76.15
2022-09-25T05:11:08.491Z,72.80
2022-09-25T05:13:37.119Z,66.70
2022-09-25T05:16:05.481Z,61.08
2022-09-25T05:18:34.180Z,62.53
2022-09-25T05:21:05.486Z,59.17
2022-09-25T05:23:33.226Z,61.17
2022-09-25T05:26:02.921Z,63.05
2022-09-25T05:28:32.558Z,56.20
2022-09-25T05:31:04.376Z,56.40
2022-09-25T05:33:34.457Z,50.85
2022-09-25T05:36:06.271Z,47.85
2022-09-25T05:38:36.739Z,50.50
2022-09-25T05:41:07.115Z,46.70
2022-09-25T05:43:40.751Z,48.88
2022-09-25T05:46:10.601Z,45.72
2022-09-25T05:48:39.127Z,51.45
2022-09-25T05:51:07.577Z,54.00
2022-09-25T05:53:35.291Z,47.03
2022-09-25T05:56:05.822Z,48.92
2022-09-25T05:58:35.589Z,44.10
2022-09-25T06:01:07.097Z,47.88
2022-09-25T06:03:36.595Z,42.65
2022-09-25T06:06:06.193Z,42.33
2022-09-25T06:08:38.040Z,42.15
2022-09-25T06:11:06.783Z,44.78
2022-09-25T06:13:37.338Z,41.30
2022-09-25T06:16:12.433Z,44.42
2022-09-25T06:18:40.668Z,41.08
2022-09-25T06:21:09.551Z,39.65
2022-09-25T06:23:37.674Z,40.42
2022-09-25T06:26:10.498Z,42.97
2022-09-25T06:28:40.293Z,43.22
2022-09-25T06:31:09.258Z,40.53
2022-09-25T06:33:37.386Z,39.28
2022-09-25T06:36:06.469Z,38.40
2022-09-25T06:38:35.328Z,38.67
2022-09-25T06:41:04.045Z,37.92
2022-09-25T06:43:32.531Z,39.78
2022-09-25T06:46:05.149Z,40.33
2022-09-25T06:48:33.716Z,38.88
2022-09-25T06:51:02.312Z,38.88
2022-09-25T06:53:31.074Z,36.40
2022-09-25T06:56:00.533Z,37.83
2022-09-25T06:58:30.689Z,36.72
2022-09-25T07:00:59.752Z,37.35
2022-09-25T07:03:47.337Z,37.28
2022-09-25T07:06:22.656Z,36.13
2022-09-25T07:08:52.336Z,38.03
2022-09-25T07:11:24.730Z,41.33
2022-09-25T07:13:55.596Z,32.35
2022-09-25T07:16:27.754Z,35.80
2022-09-25T07:18:57.815Z,33.92
2022-09-25T07:21:28.393Z,33.75
2022-09-25T07:23:59.003Z,33.75
2022-09-25T07:26:29.650Z,34.10
2022-09-25T07:29:00.784Z,29.20
2022-09-25T07:31:32.021Z,31.77
2022-09-25T07:34:03.201Z,34.67
2022-09-25T07:36:32.029Z,31.88
2022-09-25T07:39:00.481Z,31.08
2022-09-25T07:41:29.330Z,27.55
2022-09-25T07:44:18.158Z,27.45
2022-09-25T07:46:47.758Z,25.70
2022-09-25T07:49:16.266Z,31.60
2022-09-25T07:51:44.490Z,26.30
2022-09-25T07:54:13.550Z,25.58
2022-09-25T07:56:42.183Z,21.77
2022-09-25T07:59:09.964Z,23.48
2022-09-25T08:01:43.652Z,26.48
2022-09-25T08:04:14.626Z,22.73
2022-09-25T08:06:43.381Z,25.90
2022-09-25T08:09:12.360Z,20.33
2022-09-25T08:11:40.678Z,20.52
2022-09-25T08:14:08.581Z,20.85
2022-09-25T08:16:37.004Z,22.38
2022-09-25T08:19:05.583Z,18.95
2022-09-25T08:21:34.525Z,17.92
2022-09-25T08:24:02.928Z,19.63
2022-09-25T08:26:32.291Z,16.00
2022-09-25T08:29:01.152Z,23.80
2022-09-25T08:31:29.805Z,19.83
2022-09-25T08:34:09.926Z,17.08
2022-09-25T08:36:50.286Z,17.75
2022-09-25T08:39:19.033Z,17.77
2022-09-25T08:41:47.897Z,16.45
2022-09-25T08:44:19.302Z,17.65
2022-09-25T08:47:28.518Z,16.88
2022-09-25T08:50:14.736Z,19.17
2022-09-25T08:52:46.372Z,16.58
2022-09-25T08:55:24.654Z,13.60
2022-09-25T08:57:55.930Z,13.98
2022-09-25T09:00:24.547Z,15.25
2022-09-25T09:02:55.740Z,13.07
2022-09-25T09:05:35.562Z,14.40
2022-09-25T09:08:08.431Z,14.63
2022-09-25T09:10:41.881Z,15.18
2022-09-25T09:13:21.410Z,22.70
2022-09-25T09:15:50.231Z,16.05
2022-09-25T09:18:26.601Z,13.05
2022-09-25T09:20:58.419Z,11.02
2022-09-25T09:23:36.791Z,14.00
2022-09-25T09:26:11.314Z,12.73
2022-09-25T09:29:00.479Z,11.15
2022-09-25T09:31:53.741Z,13.50
2022-09-25T09:35:01.095Z,14.75
2022-09-25T09:37:58.823Z,13.40
2022-09-25T09:40:36.669Z,13.90
2022-09-25T09:43:29.591Z,11.05
2022-09-25T09:46:06.491Z,10.32
2022-09-25T09:48:41.844Z,7.78
2022-09-25T09:51:14.341Z,45.13
2022-09-25T09:53:54.953Z,16.88
2022-09-25T09:56:26.308Z,9.23
2022-09-25T09:59:14.554Z,9.27
2022-09-25T10:01:43.402Z,8.23
2022-09-25T10:04:15.168Z,8.93
2022-09-25T10:07:07.001Z,9.35
2022-09-25T10:09:36.889Z,9.35
2022-09-25T10:12:27.811Z,9.50
2022-09-25T10:14:56.706Z,7.72
2022-09-25T10:17:25.012Z,8.77
2022-09-25T10:19:59.089Z,7.13
2022-09-25T10:22:39.222Z,7.32
2022-09-25T10:25:07.522Z,8.57
2022-09-25T10:27:38.755Z,15.23
2022-09-25T10:30:12.488Z,8.70
2022-09-25T10:32:44.018Z,8.55
2022-09-25T10:35:19.629Z,8.60
2022-09-25T10:37:59.163Z,8.70
2022-09-25T10:40:35.868Z,7.88
2022-09-25T10:43:05.419Z,6.57
2022-09-25T10:45:36.006Z,7.95
2022-09-25T10:48:47.856Z,7.15
2022-09-25T10:51:21.506Z,15.30
2022-09-25T10:56:24.586Z,8.70
2022-09-25T10:59:02.059Z,16.35
2022-09-25T11:01:36.941Z,8.48
2022-09-25T11:04:12.321Z,12.35
2022-09-25T11:06:46.615Z,10.38
2022-09-25T11:09:15.901Z,11.63
2022-09-25T11:11:46.638Z,10.02
2022-09-25T11:14:22.142Z,10.07
2022-09-25T11:16:54.582Z,11.88
2022-09-25T11:19:37.123Z,9.18
2022-09-25T11:22:26.215Z,7.55
2022-09-25T11:25:01.663Z,7.53
2022-09-25T11:28:24.847Z,8.05
2022-09-25T11:31:18.889Z,9.45
2022-09-25T11:34:04.041Z,9.52
2022-09-25T11:36:44.178Z,6.93
2022-09-25T11:40:02.453Z,6.63
2022-09-25T11:42:36.959Z,6.70
2022-09-25T11:45:15.452Z,7.97
2022-09-25T11:47:54.914Z,9.02
2022-09-25T11:50:38.433Z,7.03
2022-09-25T11:53:24.697Z,10.80
2022-09-25T11:56:13.147Z,8.20
2022-09-25T11:58:46.753Z,9.15
2022-09-25T12:01:36.746Z,8.23
2022-09-25T12:04:27.995Z,7.90
2022-09-25T12:07:14.728Z,8.60
2022-09-25T12:10:04.596Z,10.30
2022-09-25T12:13:05.724Z,8.07
2022-09-25T12:15:53.192Z,7.28
2022-09-25T12:18:44.343Z,6.72
2022-09-25T12:21:21.580Z,7.63
2022-09-25T12:24:18.425Z,14.98
2022-09-25T12:27:24.391Z,7.30
2022-09-25T12:30:16.474Z,9.30
2022-09-25T12:32:44.779Z,8.02
2022-09-25T12:35:43.950Z,9.73
2022-09-25T12:38:41.075Z,9.15
2022-09-25T12:41:19.074Z,6.70
2022-09-25T12:44:05.022Z,7.38
2022-09-25T12:46:41.530Z,9.50
2022-09-25T12:49:18.143Z,7.80
2022-09-25T12:51:51.129Z,7.43
2022-09-25T12:54:45.945Z,9.20
2022-09-25T12:57:34.952Z,7.30
2022-09-25T13:00:10.722Z,7.97
2022-09-25T13:02:44.381Z,8.70
2022-09-25T13:05:31.550Z,10.35
2022-09-25T13:08:07.910Z,7.90
2022-09-25T13:10:41.790Z,8.32
2022-09-25T13:13:20.618Z,10.05
2022-09-25T13:15:58.444Z,10.05
2022-09-25T13:18:29.776Z,8.63
2022-09-25T13:21:25.240Z,8.35
2022-09-25T13:23:54.576Z,9.85
2022-09-25T13:26:25.347Z,12.48
2022-09-25T13:28:57.735Z,10.40
2022-09-25T13:31:31.270Z,12.55
2022-09-25T13:34:02.415Z,9.45
2022-09-25T13:36:46.845Z,13.32
2022-09-25T13:39:36.340Z,12.75
2022-09-25T13:42:29.916Z,11.07
2022-09-25T13:45:18.620Z,12.45
2022-09-25T13:47:57.491Z,29.42
2022-09-25T13:50:47.766Z,10.90
2022-09-25T13:53:21.768Z,9.98
2022-09-25T13:55:56.071Z,8.98
2022-09-25T13:58:26.194Z,11.18
2022-09-25T14:00:58.141Z,9.75
2022-09-25T14:03:30.846Z,9.63
2022-09-25T14:06:00.550Z,9.68
2022-09-25T14:08:32.153Z,11.45
2022-09-25T14:11:04.838Z,11.43
2022-09-25T14:13:34.293Z,18.38
2022-09-25T14:16:04.965Z,7.45
2022-09-25T14:18:39.794Z,12.02
2022-09-25T14:21:10.140Z,10.50
2022-09-25T14:23:53.694Z,12.93
2022-09-25T14:26:28.796Z,14.02
2022-09-25T14:28:58.474Z,11.98
2022-09-25T14:31:33.039Z,7.88
2022-09-25T14:34:38.854Z,11.95
2022-09-25T14:37:25.520Z,10.05
2022-09-25T14:40:11.834Z,10.70
2022-09-25T14:43:06.104Z,8.75
2022-09-25T14:45:40.381Z,12.18
2022-09-25T14:48:16.428Z,12.00
2022-09-25T14:50:48.701Z,14.75
2022-09-25T14:53:28.013Z,11.75
2022-09-25T14:55:57.157Z,10.57
2022-09-25T14:58:29.427Z,15.18
2022-09-25T15:01:10.999Z,11.27
2022-09-25T15:03:44.082Z,9.48
2022-09-25T15:06:16.168Z,11.13
2022-09-25T15:08:44.658Z,10.82
2022-09-25T15:11:18.145Z,10.95
2022-09-25T15:13:46.583Z,11.20
2022-09-25T15:16:43.812Z,12.98
2022-09-25T15:19:33.673Z,13.25
2022-09-25T15:22:02.294Z,15.73
2022-09-25T15:24:32.480Z,12.07
2022-09-25T15:27:07.029Z,12.20
2022-09-25T15:29:42.194Z,11.27
2022-09-25T15:32:39.910Z,11.93
2022-09-25T15:35:21.612Z,11.82
2022-09-25T15:37:50.315Z,15.80
2022-09-25T15:40:29.148Z,16.15
2022-09-25T15:42:57.569Z,12.13
2022-09-25T15:45:34.940Z,22.00
2022-09-25T15:48:09.626Z,12.77
2022-09-25T15:50:38.395Z,15.18
2022-09-25T15:53:06.599Z,16.13
2022-09-25T15:55:34.887Z,11.77
2022-09-25T15:58:11.150Z,17.15
2022-09-25T16:00:58.163Z,12.48
2022-09-25T16:03:48.728Z,14.18
2022-09-25T16:06:17.367Z,13.40
2022-09-25T16:08:45.884Z,13.15
2022-09-25T16:11:22.248Z,31.48
2022-09-25T16:14:12.687Z,18.02
2022-09-25T16:16:47.314Z,15.57
2022-09-25T16:19:28.663Z,18.17
2022-09-25T16:22:00.195Z,14.07
2022-09-25T16:24:29.941Z,15.43
2022-09-25T16:27:03.052Z,14.52
2022-09-25T16:29:37.700Z,12.95
2022-09-25T16:32:15.949Z,20.70
2022-09-25T16:34:56.399Z,15.90
2022-09-25T16:37:32.005Z,17.08
2022-09-25T16:40:19.234Z,16.58
2022-09-25T16:42:47.719Z,21.88
2022-09-25T16:45:16.335Z,17.73
2022-09-25T16:47:49.296Z,14.73
2022-09-25T16:50:20.785Z,15.23
2022-09-25T16:52:49.987Z,12.85
2022-09-25T16:55:29.433Z,19.92
2022-09-25T16:57:59.549Z,18.38
2022-09-25T17:00:30.183Z,20.05
2022-09-25T17:02:59.571Z,22.20
2022-09-25T17:05:30.488Z,22.58
2022-09-25T17:08:01.016Z,23.65
2022-09-25T17:10:32.110Z,30.30
2022-09-25T17:13:02.163Z,28.45
2022-09-25T17:15:35.709Z,27.85
2022-09-25T17:18:11.216Z,31.73
2022-09-25T17:20:39.172Z,30.80
2022-09-25T17:23:07.744Z,28.48
2022-09-25T17:26:00.252Z,30.65
2022-09-25T17:28:29.861Z,28.48
2022-09-25T17:30:58.233Z,25.70
2022-09-25T17:33:27.787Z,26.75
2022-09-25T17:36:04.023Z,32.78
2022-09-25T17:38:34.229Z,29.00
2022-09-25T17:41:06.040Z,30.13
2022-09-25T17:43:35.064Z,28.08
2022-09-25T17:46:03.600Z,27.85
2022-09-25T17:48:32.260Z,27.27
2022-09-25T17:51:02.306Z,25.85
2022-09-25T17:53:32.911Z,24.92
2022-09-25T17:56:02.148Z,30.92
2022-09-25T17:58:31.898Z,29.50
2022-09-25T18:01:01.569Z,29.10
2022-09-25T18:03:31.109Z,30.25
2022-09-25T18:05:59.550Z,27.40
2022-09-25T18:08:27.816Z,31.63
2022-09-25T18:11:01.586Z,27.95
2022-09-25T18:13:30.079Z,28.98
2022-09-25T18:15:59.759Z,28.20
2022-09-25T18:18:50.587Z,28.52
2022-09-25T18:21:37.804Z,30.38
2022-09-25T18:24:05.918Z,26.67
2022-09-25T18:26:34.833Z,31.23
2022-09-25T18:29:02.773Z,29.20
2022-09-25T18:31:31.004Z,33.67
2022-09-25T18:33:59.515Z,42.55
2022-09-25T18:36:29.247Z,38.50
2022-09-25T18:38:57.082Z,37.75
2022-09-25T18:41:25.419Z,36.45
2022-09-25T18:43:54.318Z,43.95
2022-09-25T18:46:22.259Z,40.00
2022-09-25T18:48:50.616Z,44.28
2022-09-25T18:51:18.937Z,52.67
2022-09-25T18:53:51.781Z,61.15
2022-09-25T18:56:21.755Z,54.47
2022-09-25T18:58:50.010Z,50.03
2022-09-25T19:01:18.797Z,51.83
2022-09-25T19:03:52.287Z,49.65
2022-09-25T19:08:57.506Z,51.30
2022-09-25T19:11:27.104Z,45.53
2022-09-25T19:13:56.656Z,48.33
2022-09-25T19:16:25.378Z,46.80
2022-09-25T19:18:54.716Z,49.83
2022-09-25T19:21:23.329Z,52.47
2022-09-25T19:23:51.230Z,51.20
2022-09-25T19:26:28.615Z,51.22
2022-09-25T19:28:57.272Z,60.65
2022-09-25T19:31:26.425Z,52.13
2022-09-25T19:33:55.773Z,50.95
2022-09-25T19:36:32.341Z,56.58
2022-09-25T19:39:02.246Z,52.55
2022-09-25T19:41:34.473Z,56.83
2022-09-25T19:44:12.294Z,53.50
2022-09-25T19:46:46.438Z,59.65
2022-09-25T19:49:16.963Z,59.33
2022-09-25T19:51:45.632Z,52.28
2022-09-25T19:54:15.471Z,54.63
2022-09-25T19:56:43.765Z,55.75
2022-09-25T19:59:16.358Z,57.92
2022-09-25T20:01:45.134Z,58.65
2022-09-25T20:04:18.642Z,60.63
2022-09-25T20:06:47.744Z,62.78
2022-09-25T20:09:16.951Z,60.03
2022-09-25T20:11:46.454Z,72.25
2022-09-25T20:14:15.052Z,63.47
2022-09-25T20:16:42.928Z,62.50
2022-09-25T20:19:10.817Z,62.72
2022-09-25T20:21:42.003Z,64.30
2022-09-25T20:24:10.050Z,61.88
2022-09-25T20:26:39.405Z,59.38
2022-09-25T20:29:12.220Z,62.20
2022-09-25T20:31:42.943Z,71.18
2022-09-25T20:34:16.369Z,63.70
2022-09-25T20:36:45.825Z,64.88
2022-09-25T20:39:20.601Z,60.35
2022-09-25T20:41:50.247Z,61.17
2022-09-25T20:44:19.059Z,66.22
2022-09-25T20:46:47.443Z,68.90
2022-09-25T20:49:20.107Z,62.05
2022-09-25T20:51:48.739Z,67.00
2022-09-25T20:54:17.024Z,67.20
2022-09-25T20:56:45.733Z,70.43
2022-09-25T20:59:16.782Z,76.78
2022-09-25T21:01:45.261Z,72.85
2022-09-25T21:04:14.747Z,71.68
2022-09-25T21:06:42.736Z,70.28
2022-09-25T21:09:21.250Z,71.97
2022-09-25T21:11:49.793Z,70.85
2022-09-25T21:14:23.264Z,70.70
2022-09-25T21:16:56.376Z,68.50
2022-09-25T21:19:24.817Z,72.90
2022-09-25T21:21:53.530Z,69.95
2022-09-25T21:24:22.182Z,67.30
2022-09-25T21:26:51.444Z,73.70
2022-09-25T21:29:20.311Z,73.63
2022-09-25T21:31:50.558Z,68.07
2022-09-25T21:34:20.299Z,70.35
2022-09-25T21:36:49.393Z,71.15
2022-09-25T21:39:19.104Z,70.38
2022-09-25T21:41:49.452Z,71.32
2022-09-25T21:44:20.817Z,68.70
2022-09-25T21:46:49.392Z,75.63
2022-09-25T21:49:20.379Z,73.50
2022-09-25T21:51:49.869Z,73.65
2022-09-25T21:54:18.889Z,73.22
2022-09-25T21:56:49.461Z,75.47
2022-09-25T21:59:17.800Z,71.25
2022-09-25T22:01:46.883Z,71.38
2022-09-25T22:04:16.080Z,76.07
2022-09-25T22:06:47.486Z,68.65
2022-09-25T22:09:22.042Z,84.03
2022-09-25T22:11:51.765Z,78.30
2022-09-25T22:14:21.390Z,77.40
2022-09-25T22:16:51.840Z,75.65
2022-09-25T22:19:24.381Z,68.82
2022-09-25T22:21:54.031Z,75.07
2022-09-25T22:24:22.815Z,80.35
2022-09-25T22:26:54.259Z,71.55
2022-09-25T22:29:23.704Z,71.20
2022-09-25T22:31:52.338Z,77.97
2022-09-25T22:34:27.978Z,71.43
2022-09-25T22:36:59.850Z,75.63
2022-09-25T22:39:29.766Z,84.18
2022-09-25T22:41:58.974Z,75.90
2022-09-25T22:44:27.439Z,77.15
2022-09-25T22:46:56.475Z,75.28
2022-09-25T22:49:25.298Z,73.18
2022-09-25T22:51:53.470Z,72.95
2022-09-25T22:54:21.602Z,65.60
2022-09-25T22:56:49.959Z,72.90
2022-09-25T22:59:18.577Z,74.32
2022-09-25T23:01:53.097Z,68.60
2022-09-25T23:04:23.785Z,81.13
2022-09-25T23:06:52.318Z,89.53
2022-09-25T23:09:23.114Z,84.45
2022-09-25T23:11:51.550Z,82.95
2022-09-25T23:14:23.135Z,79.85
2022-09-25T23:16:53.643Z,72.00
2022-09-25T23:19:22.922Z,69.75
2022-09-25T23:21:55.137Z,75.68
2022-09-25T23:26:52.224Z,66.05
2022-09-25T23:29:21.906Z,71.88
2022-09-25T23:31:50.786Z,68.00
2022-09-25T23:34:20.145Z,66.32
2022-09-25T23:36:48.620Z,68.53
2022-09-25T23:39:19.385Z,67.13
2022-09-25T23:41:48.256Z,67.65
2022-09-25T23:44:16.459Z,66.45
2022-09-25T23:46:45.265Z,79.82
2022-09-25T23:49:15.090Z,69.35
2022-09-25T23:51:43.759Z,67.57
2022-09-25T23:54:13.057Z,68.75
2022-09-25T23:56:41.903Z,67.85
2022-09-25T23:59:12.354Z,62.75
